sensor_id;sensor_type;location;lat;lon;timestamp;pressure;altitude;pressure_sealevel;temperature;humidity
7335;BME280;3708;42.632;23.378;2023-04-07T00:02:10;94001.72;;;4.49;39.59
7335;BME280;3708;42.632;23.378;2023-04-07T00:04:37;94029.69;;;3.88;40.46
7335;BME280;3708;42.632;23.378;2023-04-07T00:07:04;94000.25;;;4.29;40.26
7335;BME280;3708;42.632;23.378;2023-04-07T00:09:30;94002.47;;;4.36;39.73
7335;BME280;3708;42.632;23.378;2023-04-07T00:11:57;93998.28;;;4.08;40.08
7335;BME280;3708;42.632;23.378;2023-04-07T00:14:26;94005.50;;;4.56;39.31
7335;BME280;3708;42.632;23.378;2023-04-07T00:16:52;94017.06;;;4.18;40.28
7335;BME280;3708;42.632;23.378;2023-04-07T00:19:21;93996.69;;;4.25;40.08
7335;BME280;3708;42.632;23.378;2023-04-07T00:21:47;93996.59;;;4.76;39.18
7335;BME280;3708;42.632;23.378;2023-04-07T00:24:14;93998.22;;;4.72;39.37
7335;BME280;3708;42.632;23.378;2023-04-07T00:26:41;93995.13;;;4.56;39.46
7335;BME280;3708;42.632;23.378;2023-04-07T00:29:08;94002.69;;;4.53;39.22
7335;BME280;3708;42.632;23.378;2023-04-07T00:31:34;93997.84;;;4.79;39.58
7335;BME280;3708;42.632;23.378;2023-04-07T00:34:01;93998.66;;;4.47;39.54
7335;BME280;3708;42.632;23.378;2023-04-07T00:36:29;94006.22;;;4.89;38.78
7335;BME280;3708;42.632;23.378;2023-04-07T00:38:56;94003.31;;;4.77;39.38
7335;BME280;3708;42.632;23.378;2023-04-07T00:41:23;94003.78;;;4.79;39.23
7335;BME280;3708;42.632;23.378;2023-04-07T00:43:50;93995.03;;;4.48;39.51
7335;BME280;3708;42.632;23.378;2023-04-07T00:46:19;93999.56;;;4.83;39.45
7335;BME280;3708;42.632;23.378;2023-04-07T00:48:47;94004.94;;;4.73;39.49
7335;BME280;3708;42.632;23.378;2023-04-07T00:51:14;93999.44;;;4.75;39.42
7335;BME280;3708;42.632;23.378;2023-04-07T00:53:43;93993.50;;;5.01;38.72
7335;BME280;3708;42.632;23.378;2023-04-07T00:56:09;93995.19;;;4.38;39.53
7335;BME280;3708;42.632;23.378;2023-04-07T00:58:37;93998.28;;;4.40;40.02
7335;BME280;3708;42.632;23.378;2023-04-07T01:01:08;94004.88;;;4.00;40.92
7335;BME280;3708;42.632;23.378;2023-04-07T01:03:38;93992.09;;;4.36;40.40
7335;BME280;3708;42.632;23.378;2023-04-07T01:06:13;93994.09;;;3.93;40.73
7335;BME280;3708;42.632;23.378;2023-04-07T01:08:51;93992.56;;;4.70;39.79
7335;BME280;3708;42.632;23.378;2023-04-07T01:11:23;93998.09;;;4.04;40.47
7335;BME280;3708;42.632;23.378;2023-04-07T01:13:51;93993.03;;;4.58;39.43
7335;BME280;3708;42.632;23.378;2023-04-07T01:16:23;94005.28;;;4.53;39.13
7335;BME280;3708;42.632;23.378;2023-04-07T01:18:53;93999.06;;;4.81;38.77
7335;BME280;3708;42.632;23.378;2023-04-07T01:21:21;93988.50;;;4.64;39.42
7335;BME280;3708;42.632;23.378;2023-04-07T01:24:02;93990.59;;;4.62;39.56
7335;BME280;3708;42.632;23.378;2023-04-07T01:26:31;93991.22;;;4.86;39.27
7335;BME280;3708;42.632;23.378;2023-04-07T01:29:18;93990.91;;;4.74;39.90
7335;BME280;3708;42.632;23.378;2023-04-07T01:31:47;93981.97;;;4.67;39.96
7335;BME280;3708;42.632;23.378;2023-04-07T01:34:15;93987.38;;;4.70;40.02
7335;BME280;3708;42.632;23.378;2023-04-07T01:36:44;93978.09;;;5.05;39.08
7335;BME280;3708;42.632;23.378;2023-04-07T01:39:12;93986.97;;;4.90;39.37
7335;BME280;3708;42.632;23.378;2023-04-07T01:41:40;93984.47;;;4.99;39.21
7335;BME280;3708;42.632;23.378;2023-04-07T01:44:08;93980.31;;;4.43;39.76
7335;BME280;3708;42.632;23.378;2023-04-07T01:46:37;93982.28;;;4.79;39.16
7335;BME280;3708;42.632;23.378;2023-04-07T01:49:04;93975.44;;;4.83;39.00
7335;BME280;3708;42.632;23.378;2023-04-07T01:51:32;93980.13;;;4.94;38.58
7335;BME280;3708;42.632;23.378;2023-04-07T01:54:00;93982.66;;;4.72;39.19
7335;BME280;3708;42.632;23.378;2023-04-07T01:56:27;93965.34;;;4.81;38.88
7335;BME280;3708;42.632;23.378;2023-04-07T01:58:54;93973.31;;;4.71;38.59
7335;BME280;3708;42.632;23.378;2023-04-07T02:01:21;93966.78;;;4.74;38.62
7335;BME280;3708;42.632;23.378;2023-04-07T02:03:53;93976.72;;;4.85;38.82
7335;BME280;3708;42.632;23.378;2023-04-07T02:06:26;93964.38;;;4.91;38.47
7335;BME280;3708;42.632;23.378;2023-04-07T02:08:56;93961.41;;;4.97;38.55
7335;BME280;3708;42.632;23.378;2023-04-07T02:11:25;93968.63;;;5.00;38.63
7335;BME280;3708;42.632;23.378;2023-04-07T02:13:53;93959.38;;;5.43;38.12
7335;BME280;3708;42.632;23.378;2023-04-07T02:16:21;93968.22;;;4.80;38.66
7335;BME280;3708;42.632;23.378;2023-04-07T02:18:49;93965.88;;;5.32;38.24
7335;BME280;3708;42.632;23.378;2023-04-07T02:21:18;93966.66;;;5.19;38.27
7335;BME280;3708;42.632;23.378;2023-04-07T02:23:46;93959.75;;;5.51;38.54
7335;BME280;3708;42.632;23.378;2023-04-07T02:26:12;93960.84;;;5.72;38.15
7335;BME280;3708;42.632;23.378;2023-04-07T02:28:39;93959.75;;;6.08;38.12
7335;BME280;3708;42.632;23.378;2023-04-07T02:31:06;93964.38;;;6.11;37.29
7335;BME280;3708;42.632;23.378;2023-04-07T02:33:33;93961.72;;;5.45;37.42
7335;BME280;3708;42.632;23.378;2023-04-07T02:36:01;93966.97;;;4.77;38.51
7335;BME280;3708;42.632;23.378;2023-04-07T02:38:28;93969.88;;;4.89;39.01
7335;BME280;3708;42.632;23.378;2023-04-07T02:40:55;93973.66;;;5.32;38.05
7335;BME280;3708;42.632;23.378;2023-04-07T02:43:23;93963.44;;;4.87;38.69
7335;BME280;3708;42.632;23.378;2023-04-07T02:45:50;93968.31;;;5.15;37.89
7335;BME280;3708;42.632;23.378;2023-04-07T02:48:16;93959.47;;;5.16;38.20
7335;BME280;3708;42.632;23.378;2023-04-07T02:50:43;93967.63;;;5.10;38.37
7335;BME280;3708;42.632;23.378;2023-04-07T02:53:11;93964.38;;;5.54;38.00
7335;BME280;3708;42.632;23.378;2023-04-07T02:55:38;93963.22;;;5.46;38.06
7335;BME280;3708;42.632;23.378;2023-04-07T02:58:05;93987.66;;;4.82;38.77
7335;BME280;3708;42.632;23.378;2023-04-07T03:00:33;93977.53;;;5.08;38.75
7335;BME280;3708;42.632;23.378;2023-04-07T03:03:00;93973.06;;;5.35;38.24
7335;BME280;3708;42.632;23.378;2023-04-07T03:05:27;93974.88;;;6.06;39.12
7335;BME280;3708;42.632;23.378;2023-04-07T03:07:53;93975.94;;;6.05;40.53
7335;BME280;3708;42.632;23.378;2023-04-07T03:10:22;93977.75;;;5.83;43.00
7335;BME280;3708;42.632;23.378;2023-04-07T03:12:49;93974.91;;;5.71;44.24
7335;BME280;3708;42.632;23.378;2023-04-07T03:15:16;93970.44;;;5.85;44.84
7335;BME280;3708;42.632;23.378;2023-04-07T03:17:44;93974.28;;;5.87;44.05
7335;BME280;3708;42.632;23.378;2023-04-07T03:20:11;93982.75;;;5.93;44.04
7335;BME280;3708;42.632;23.378;2023-04-07T03:22:39;93978.63;;;5.78;45.17
7335;BME280;3708;42.632;23.378;2023-04-07T03:25:09;93980.25;;;5.88;44.95
7335;BME280;3708;42.632;23.378;2023-04-07T03:27:38;93977.97;;;5.73;44.89
7335;BME280;3708;42.632;23.378;2023-04-07T03:30:15;93970.44;;;5.49;45.60
7335;BME280;3708;42.632;23.378;2023-04-07T03:32:42;93983.31;;;5.05;46.18
7335;BME280;3708;42.632;23.378;2023-04-07T03:35:09;93978.78;;;5.10;43.99
7335;BME280;3708;42.632;23.378;2023-04-07T03:37:36;93983.09;;;4.33;41.57
7335;BME280;3708;42.632;23.378;2023-04-07T03:40:06;93969.78;;;4.67;41.06
7335;BME280;3708;42.632;23.378;2023-04-07T03:42:33;93966.28;;;5.26;39.57
7335;BME280;3708;42.632;23.378;2023-04-07T03:45:01;93972.09;;;5.45;39.18
7335;BME280;3708;42.632;23.378;2023-04-07T03:47:28;93975.25;;;4.79;39.85
7335;BME280;3708;42.632;23.378;2023-04-07T03:49:55;93978.69;;;4.75;39.87
7335;BME280;3708;42.632;23.378;2023-04-07T03:52:22;93975.34;;;5.01;39.51
7335;BME280;3708;42.632;23.378;2023-04-07T03:54:50;93994.28;;;4.88;39.77
7335;BME280;3708;42.632;23.378;2023-04-07T03:57:17;93981.31;;;5.15;39.72
7335;BME280;3708;42.632;23.378;2023-04-07T03:59:44;93982.34;;;5.01;39.32
7335;BME280;3708;42.632;23.378;2023-04-07T04:02:16;93982.72;;;4.94;39.45
7335;BME280;3708;42.632;23.378;2023-04-07T04:04:43;93987.34;;;4.97;39.42
7335;BME280;3708;42.632;23.378;2023-04-07T04:07:10;93979.13;;;5.45;38.72
7335;BME280;3708;42.632;23.378;2023-04-07T04:09:37;93986.47;;;5.65;38.47
7335;BME280;3708;42.632;23.378;2023-04-07T04:12:04;93980.78;;;5.13;39.22
7335;BME280;3708;42.632;23.378;2023-04-07T04:14:31;93983.59;;;5.66;38.74
7335;BME280;3708;42.632;23.378;2023-04-07T04:16:58;93992.31;;;5.34;38.49
7335;BME280;3708;42.632;23.378;2023-04-07T04:19:26;93988.91;;;5.97;38.43
7335;BME280;3708;42.632;23.378;2023-04-07T04:21:53;93984.97;;;6.30;37.41
7335;BME280;3708;42.632;23.378;2023-04-07T04:24:20;93995.69;;;5.71;37.26
7335;BME280;3708;42.632;23.378;2023-04-07T04:26:47;93987.66;;;5.94;37.64
7335;BME280;3708;42.632;23.378;2023-04-07T04:29:14;93996.31;;;5.54;39.39
7335;BME280;3708;42.632;23.378;2023-04-07T04:31:41;94006.84;;;5.22;40.55
7335;BME280;3708;42.632;23.378;2023-04-07T04:34:08;93999.09;;;5.58;40.15
7335;BME280;3708;42.632;23.378;2023-04-07T04:36:36;93999.00;;;5.63;40.76
7335;BME280;3708;42.632;23.378;2023-04-07T04:39:04;94005.06;;;5.94;40.09
7335;BME280;3708;42.632;23.378;2023-04-07T04:41:31;94002.38;;;5.99;39.96
7335;BME280;3708;42.632;23.378;2023-04-07T04:43:58;94005.81;;;6.08;40.17
7335;BME280;3708;42.632;23.378;2023-04-07T04:46:25;94016.47;;;5.84;40.58
7335;BME280;3708;42.632;23.378;2023-04-07T04:48:51;94015.16;;;5.95;40.90
7335;BME280;3708;42.632;23.378;2023-04-07T04:51:18;94015.59;;;6.11;40.09
7335;BME280;3708;42.632;23.378;2023-04-07T04:53:47;94012.06;;;6.29;40.91
7335;BME280;3708;42.632;23.378;2023-04-07T04:56:14;94013.16;;;6.37;40.15
7335;BME280;3708;42.632;23.378;2023-04-07T04:58:41;94016.84;;;6.36;40.11
7335;BME280;3708;42.632;23.378;2023-04-07T05:01:10;94016.06;;;6.13;39.78
7335;BME280;3708;42.632;23.378;2023-04-07T05:03:37;94024.13;;;5.54;41.25
7335;BME280;3708;42.632;23.378;2023-04-07T05:06:04;94021.91;;;5.83;41.07
7335;BME280;3708;42.632;23.378;2023-04-07T05:08:32;94026.44;;;5.91;40.87
7335;BME280;3708;42.632;23.378;2023-04-07T05:11:00;94027.00;;;6.01;41.57
7335;BME280;3708;42.632;23.378;2023-04-07T05:13:26;94032.34;;;6.19;41.65
7335;BME280;3708;42.632;23.378;2023-04-07T05:15:55;94038.38;;;6.36;41.51
7335;BME280;3708;42.632;23.378;2023-04-07T05:18:22;94033.53;;;6.43;42.41
7335;BME280;3708;42.632;23.378;2023-04-07T05:20:48;94031.53;;;5.96;43.68
7335;BME280;3708;42.632;23.378;2023-04-07T05:23:15;94042.53;;;5.93;43.72
7335;BME280;3708;42.632;23.378;2023-04-07T05:25:42;94043.00;;;5.95;44.26
7335;BME280;3708;42.632;23.378;2023-04-07T05:28:10;94046.03;;;6.10;44.30
7335;BME280;3708;42.632;23.378;2023-04-07T05:30:37;94035.81;;;6.14;44.62
7335;BME280;3708;42.632;23.378;2023-04-07T05:33:04;94040.53;;;6.34;44.21
7335;BME280;3708;42.632;23.378;2023-04-07T05:35:30;94041.91;;;6.62;43.65
7335;BME280;3708;42.632;23.378;2023-04-07T05:37:57;94039.72;;;6.78;43.92
7335;BME280;3708;42.632;23.378;2023-04-07T05:40:24;94049.16;;;6.96;44.42
7335;BME280;3708;42.632;23.378;2023-04-07T05:42:51;94041.34;;;6.96;43.91
7335;BME280;3708;42.632;23.378;2023-04-07T05:45:19;94045.91;;;6.99;43.34
7335;BME280;3708;42.632;23.378;2023-04-07T05:47:46;94041.16;;;6.92;43.30
7335;BME280;3708;42.632;23.378;2023-04-07T05:50:14;94037.53;;;6.71;43.16
7335;BME280;3708;42.632;23.378;2023-04-07T05:52:41;94035.63;;;6.85;43.09
7335;BME280;3708;42.632;23.378;2023-04-07T05:55:08;94044.69;;;6.97;43.17
7335;BME280;3708;42.632;23.378;2023-04-07T05:57:35;94042.69;;;6.93;42.76
7335;BME280;3708;42.632;23.378;2023-04-07T06:00:02;94045.53;;;7.14;42.79
7335;BME280;3708;42.632;23.378;2023-04-07T06:02:30;94046.69;;;7.39;41.89
7335;BME280;3708;42.632;23.378;2023-04-07T06:04:57;94049.31;;;7.47;41.55
7335;BME280;3708;42.632;23.378;2023-04-07T06:07:24;94051.00;;;7.43;41.28
7335;BME280;3708;42.632;23.378;2023-04-07T06:09:51;94045.97;;;7.64;40.78
7335;BME280;3708;42.632;23.378;2023-04-07T06:12:17;94039.69;;;7.74;40.60
7335;BME280;3708;42.632;23.378;2023-04-07T06:14:46;94044.00;;;7.78;40.92
7335;BME280;3708;42.632;23.378;2023-04-07T06:17:16;94050.13;;;7.82;40.78
7335;BME280;3708;42.632;23.378;2023-04-07T06:19:45;94047.50;;;7.65;40.90
7335;BME280;3708;42.632;23.378;2023-04-07T06:22:11;94046.75;;;7.90;40.48
7335;BME280;3708;42.632;23.378;2023-04-07T06:24:38;94051.22;;;8.07;39.97
7335;BME280;3708;42.632;23.378;2023-04-07T06:27:05;94050.28;;;7.94;39.65
7335;BME280;3708;42.632;23.378;2023-04-07T06:29:33;94040.19;;;8.01;40.33
7335;BME280;3708;42.632;23.378;2023-04-07T06:32:00;94048.47;;;8.29;40.25
7335;BME280;3708;42.632;23.378;2023-04-07T06:34:27;94047.69;;;8.37;39.95
7335;BME280;3708;42.632;23.378;2023-04-07T06:36:55;94034.28;;;8.73;39.12
7335;BME280;3708;42.632;23.378;2023-04-07T06:39:22;94040.84;;;8.87;39.20
7335;BME280;3708;42.632;23.378;2023-04-07T06:41:49;94034.78;;;9.04;38.67
7335;BME280;3708;42.632;23.378;2023-04-07T06:44:16;94044.16;;;9.13;38.33
7335;BME280;3708;42.632;23.378;2023-04-07T06:46:43;94030.72;;;9.23;38.33
7335;BME280;3708;42.632;23.378;2023-04-07T06:49:11;94035.44;;;9.01;36.69
7335;BME280;3708;42.632;23.378;2023-04-07T06:51:38;94035.50;;;9.21;36.00
7335;BME280;3708;42.632;23.378;2023-04-07T06:54:06;94035.69;;;9.08;37.01
7335;BME280;3708;42.632;23.378;2023-04-07T06:56:37;94029.19;;;8.76;37.59
7335;BME280;3708;42.632;23.378;2023-04-07T06:59:04;94036.72;;;8.78;38.22
7335;BME280;3708;42.632;23.378;2023-04-07T07:01:30;94029.97;;;9.14;37.89
7335;BME280;3708;42.632;23.378;2023-04-07T07:03:57;94030.47;;;9.46;37.50
7335;BME280;3708;42.632;23.378;2023-04-07T07:06:25;94031.66;;;9.77;37.06
7335;BME280;3708;42.632;23.378;2023-04-07T07:08:52;94041.38;;;9.97;35.91
7335;BME280;3708;42.632;23.378;2023-04-07T07:11:20;94060.91;;;8.49;37.12
7335;BME280;3708;42.632;23.378;2023-04-07T07:13:47;94047.84;;;8.58;37.58
7335;BME280;3708;42.632;23.378;2023-04-07T07:16:14;94046.66;;;8.93;36.66
7335;BME280;3708;42.632;23.378;2023-04-07T07:18:40;94035.97;;;9.15;36.80
7335;BME280;3708;42.632;23.378;2023-04-07T07:21:07;94055.38;;;8.51;38.38
7335;BME280;3708;42.632;23.378;2023-04-07T07:23:34;94057.59;;;8.95;37.66
7335;BME280;3708;42.632;23.378;2023-04-07T07:26:01;94053.13;;;9.33;37.19
7335;BME280;3708;42.632;23.378;2023-04-07T07:28:29;94051.41;;;9.66;37.10
7335;BME280;3708;42.632;23.378;2023-04-07T07:30:56;94056.56;;;10.25;36.27
7335;BME280;3708;42.632;23.378;2023-04-07T07:33:23;94072.22;;;9.83;35.33
7335;BME280;3708;42.632;23.378;2023-04-07T07:35:50;94081.91;;;8.01;34.29
7335;BME280;3708;42.632;23.378;2023-04-07T07:38:18;94083.59;;;7.97;34.86
7335;BME280;3708;42.632;23.378;2023-04-07T07:40:44;94068.13;;;7.36;35.38
7335;BME280;3708;42.632;23.378;2023-04-07T07:43:11;94068.72;;;6.63;36.10
7335;BME280;3708;42.632;23.378;2023-04-07T07:45:40;94068.47;;;7.04;36.26
7335;BME280;3708;42.632;23.378;2023-04-07T07:48:07;94075.31;;;7.30;36.03
7335;BME280;3708;42.632;23.378;2023-04-07T07:50:34;94059.19;;;7.20;36.13
7335;BME280;3708;42.632;23.378;2023-04-07T07:53:00;94085.78;;;7.39;36.06
7335;BME280;3708;42.632;23.378;2023-04-07T07:55:27;94074.25;;;8.30;35.08
7335;BME280;3708;42.632;23.378;2023-04-07T07:57:54;94082.91;;;7.57;34.66
7335;BME280;3708;42.632;23.378;2023-04-07T08:00:21;94091.38;;;7.24;36.01
7335;BME280;3708;42.632;23.378;2023-04-07T08:02:49;94075.25;;;7.61;34.00
7335;BME280;3708;42.632;23.378;2023-04-07T08:05:16;94088.38;;;7.39;35.36
7335;BME280;3708;42.632;23.378;2023-04-07T08:07:43;94078.19;;;7.94;34.77
7335;BME280;3708;42.632;23.378;2023-04-07T08:10:11;94083.41;;;7.94;34.81
7335;BME280;3708;42.632;23.378;2023-04-07T08:12:38;94070.72;;;8.43;34.11
7335;BME280;3708;42.632;23.378;2023-04-07T08:15:05;94065.50;;;8.18;33.87
7335;BME280;3708;42.632;23.378;2023-04-07T08:17:34;94072.72;;;8.47;33.54
7335;BME280;3708;42.632;23.378;2023-04-07T08:20:03;94095.34;;;7.60;34.38
7335;BME280;3708;42.632;23.378;2023-04-07T08:22:30;94087.97;;;7.54;34.95
7335;BME280;3708;42.632;23.378;2023-04-07T08:24:56;94091.59;;;8.35;33.28
7335;BME280;3708;42.632;23.378;2023-04-07T08:27:23;94075.47;;;8.59;32.99
7335;BME280;3708;42.632;23.378;2023-04-07T08:29:58;94072.31;;;8.91;32.80
7335;BME280;3708;42.632;23.378;2023-04-07T08:32:25;94080.38;;;8.09;32.91
7335;BME280;3708;42.632;23.378;2023-04-07T08:34:54;94073.78;;;8.03;34.08
7335;BME280;3708;42.632;23.378;2023-04-07T08:37:22;94085.84;;;7.73;34.56
7335;BME280;3708;42.632;23.378;2023-04-07T08:39:49;94069.31;;;7.86;34.37
7335;BME280;3708;42.632;23.378;2023-04-07T08:42:17;94078.06;;;7.90;34.06
7335;BME280;3708;42.632;23.378;2023-04-07T08:44:45;94073.63;;;7.99;34.58
7335;BME280;3708;42.632;23.378;2023-04-07T08:47:14;94063.00;;;7.79;35.01
7335;BME280;3708;42.632;23.378;2023-04-07T08:49:43;94088.03;;;7.88;35.12
7335;BME280;3708;42.632;23.378;2023-04-07T08:52:13;94085.13;;;8.07;34.51
7335;BME280;3708;42.632;23.378;2023-04-07T08:54:43;94070.69;;;7.92;34.63
7335;BME280;3708;42.632;23.378;2023-04-07T08:57:10;94075.31;;;8.04;34.51
7335;BME280;3708;42.632;23.378;2023-04-07T08:59:39;94076.66;;;7.76;34.59
7335;BME280;3708;42.632;23.378;2023-04-07T09:02:09;94078.47;;;7.58;35.23
7335;BME280;3708;42.632;23.378;2023-04-07T09:04:36;94067.94;;;8.06;35.06
7335;BME280;3708;42.632;23.378;2023-04-07T09:07:02;94079.75;;;8.03;34.53
7335;BME280;3708;42.632;23.378;2023-04-07T09:09:29;94072.59;;;8.34;33.92
7335;BME280;3708;42.632;23.378;2023-04-07T09:11:57;94066.72;;;8.63;33.32
7335;BME280;3708;42.632;23.378;2023-04-07T09:14:24;94072.72;;;8.55;33.95
7335;BME280;3708;42.632;23.378;2023-04-07T09:16:53;94069.03;;;8.48;33.56
7335;BME280;3708;42.632;23.378;2023-04-07T09:19:20;94067.91;;;8.74;33.42
7335;BME280;3708;42.632;23.378;2023-04-07T09:21:48;94073.47;;;8.73;33.75
7335;BME280;3708;42.632;23.378;2023-04-07T09:24:23;94077.22;;;9.01;32.63
7335;BME280;3708;42.632;23.378;2023-04-07T09:26:50;94078.69;;;9.19;31.90
7335;BME280;3708;42.632;23.378;2023-04-07T09:29:21;94069.47;;;10.30;31.11
7335;BME280;3708;42.632;23.378;2023-04-07T09:31:49;94090.09;;;9.06;32.43
7335;BME280;3708;42.632;23.378;2023-04-07T09:34:23;94071.88;;;9.93;31.33
7335;BME280;3708;42.632;23.378;2023-04-07T09:36:51;94074.94;;;9.37;31.69
7335;BME280;3708;42.632;23.378;2023-04-07T09:39:18;94074.97;;;8.74;32.51
7335;BME280;3708;42.632;23.378;2023-04-07T09:41:45;94075.84;;;9.03;32.29
7335;BME280;3708;42.632;23.378;2023-04-07T09:44:12;94090.94;;;8.89;32.72
7335;BME280;3708;42.632;23.378;2023-04-07T09:46:49;94079.47;;;8.48;33.67
7335;BME280;3708;42.632;23.378;2023-04-07T09:49:16;94080.09;;;8.44;33.58
7335;BME280;3708;42.632;23.378;2023-04-07T09:51:55;94083.75;;;9.24;33.01
7335;BME280;3708;42.632;23.378;2023-04-07T09:54:33;94087.78;;;8.58;33.90
7335;BME280;3708;42.632;23.378;2023-04-07T09:57:01;94097.41;;;8.83;34.28
7335;BME280;3708;42.632;23.378;2023-04-07T09:59:28;94089.75;;;8.53;33.98
7335;BME280;3708;42.632;23.378;2023-04-07T10:01:57;94096.97;;;8.56;34.46
7335;BME280;3708;42.632;23.378;2023-04-07T10:04:24;94082.34;;;8.72;34.96
7335;BME280;3708;42.632;23.378;2023-04-07T10:06:52;94086.59;;;9.02;34.67
7335;BME280;3708;42.632;23.378;2023-04-07T10:09:20;94079.75;;;9.27;33.52
7335;BME280;3708;42.632;23.378;2023-04-07T10:11:49;94088.97;;;9.24;33.55
7335;BME280;3708;42.632;23.378;2023-04-07T10:14:17;94076.38;;;9.26;33.45
7335;BME280;3708;42.632;23.378;2023-04-07T10:16:45;94085.84;;;8.93;34.05
7335;BME280;3708;42.632;23.378;2023-04-07T10:19:14;94082.22;;;9.61;32.58
7335;BME280;3708;42.632;23.378;2023-04-07T10:21:42;94080.63;;;9.39;32.28
7335;BME280;3708;42.632;23.378;2023-04-07T10:24:18;94079.75;;;10.14;32.35
7335;BME280;3708;42.632;23.378;2023-04-07T10:26:51;94083.59;;;9.58;32.82
7335;BME280;3708;42.632;23.378;2023-04-07T10:29:22;94081.69;;;9.96;32.58
7335;BME280;3708;42.632;23.378;2023-04-07T10:31:50;94080.78;;;9.34;33.38
7335;BME280;3708;42.632;23.378;2023-04-07T10:34:56;94075.88;;;9.91;32.64
7335;BME280;3708;42.632;23.378;2023-04-07T10:37:24;94086.06;;;10.34;31.71
7335;BME280;3708;42.632;23.378;2023-04-07T10:42:52;94079.22;;;8.95;34.02
7335;BME280;3708;42.632;23.378;2023-04-07T10:45:55;94098.47;;;8.82;33.89
7335;BME280;3708;42.632;23.378;2023-04-07T10:48:24;94094.44;;;9.02;33.93
7335;BME280;3708;42.632;23.378;2023-04-07T10:51:14;94083.25;;;9.39;33.16
7335;BME280;3708;42.632;23.378;2023-04-07T10:57:14;94088.44;;;9.01;33.71
7335;BME280;3708;42.632;23.378;2023-04-07T11:00:14;94106.19;;;8.62;34.25
7335;BME280;3708;42.632;23.378;2023-04-07T11:02:42;94104.00;;;8.81;34.02
7335;BME280;3708;42.632;23.378;2023-04-07T11:05:19;94095.59;;;8.75;34.08
7335;BME280;3708;42.632;23.378;2023-04-07T11:07:51;94093.53;;;8.98;33.85
7335;BME280;3708;42.632;23.378;2023-04-07T11:10:19;94102.50;;;8.37;36.01
7335;BME280;3708;42.632;23.378;2023-04-07T11:13:02;94103.38;;;8.92;35.40
7335;BME280;3708;42.632;23.378;2023-04-07T11:15:29;94101.50;;;8.93;35.54
7335;BME280;3708;42.632;23.378;2023-04-07T11:18:10;94098.75;;;9.73;34.78
7335;BME280;3708;42.632;23.378;2023-04-07T11:20:46;94095.31;;;9.81;34.75
7335;BME280;3708;42.632;23.378;2023-04-07T11:23:15;94112.13;;;8.96;35.98
7335;BME280;3708;42.632;23.378;2023-04-07T11:25:43;94105.69;;;8.85;36.42
7335;BME280;3708;42.632;23.378;2023-04-07T11:28:11;94101.31;;;8.34;37.33
7335;BME280;3708;42.632;23.378;2023-04-07T11:30:44;94095.53;;;8.92;36.12
7335;BME280;3708;42.632;23.378;2023-04-07T11:33:14;94101.56;;;9.31;36.05
7335;BME280;3708;42.632;23.378;2023-04-07T11:35:50;94101.72;;;8.79;36.03
7335;BME280;3708;42.632;23.378;2023-04-07T11:38:18;94097.56;;;9.33;35.76
7335;BME280;3708;42.632;23.378;2023-04-07T11:40:45;94103.44;;;8.50;36.55
7335;BME280;3708;42.632;23.378;2023-04-07T11:43:17;94091.34;;;9.00;36.13
7335;BME280;3708;42.632;23.378;2023-04-07T11:45:44;94099.28;;;9.29;35.93
7335;BME280;3708;42.632;23.378;2023-04-07T11:48:25;94097.78;;;9.11;36.38
7335;BME280;3708;42.632;23.378;2023-04-07T11:50:52;94090.97;;;9.65;35.56
7335;BME280;3708;42.632;23.378;2023-04-07T11:53:26;94093.28;;;9.58;35.89
7335;BME280;3708;42.632;23.378;2023-04-07T11:56:00;94106.72;;;9.10;36.29
7335;BME280;3708;42.632;23.378;2023-04-07T11:58:27;94097.84;;;9.69;36.43
7335;BME280;3708;42.632;23.378;2023-04-07T12:00:54;94104.34;;;10.22;36.04
7335;BME280;3708;42.632;23.378;2023-04-07T12:03:21;94102.69;;;10.17;35.68
7335;BME280;3708;42.632;23.378;2023-04-07T12:05:48;94096.53;;;9.84;35.97
7335;BME280;3708;42.632;23.378;2023-04-07T12:08:15;94103.22;;;9.73;35.95
7335;BME280;3708;42.632;23.378;2023-04-07T12:10:44;94100.44;;;9.98;35.54
7335;BME280;3708;42.632;23.378;2023-04-07T12:13:12;94096.69;;;9.58;36.24
7335;BME280;3708;42.632;23.378;2023-04-07T12:15:39;94108.78;;;9.92;36.65
7335;BME280;3708;42.632;23.378;2023-04-07T12:18:06;94097.66;;;10.33;36.13
7335;BME280;3708;42.632;23.378;2023-04-07T12:20:33;94102.47;;;10.96;34.88
7335;BME280;3708;42.632;23.378;2023-04-07T12:23:00;94100.19;;;10.21;35.07
7335;BME280;3708;42.632;23.378;2023-04-07T12:25:27;94099.47;;;10.12;35.73
7335;BME280;3708;42.632;23.378;2023-04-07T12:27:55;94110.25;;;9.52;37.06
7335;BME280;3708;42.632;23.378;2023-04-07T12:30:22;94110.59;;;9.71;36.73
7335;BME280;3708;42.632;23.378;2023-04-07T12:32:49;94105.94;;;10.06;36.09
7335;BME280;3708;42.632;23.378;2023-04-07T12:35:16;94113.13;;;9.59;36.80
7335;BME280;3708;42.632;23.378;2023-04-07T12:37:42;94105.81;;;9.73;36.38
7335;BME280;3708;42.632;23.378;2023-04-07T12:40:11;94107.44;;;9.86;36.66
7335;BME280;3708;42.632;23.378;2023-04-07T12:42:38;94111.47;;;10.13;35.99
7335;BME280;3708;42.632;23.378;2023-04-07T12:45:07;94112.97;;;10.43;35.10
7335;BME280;3708;42.632;23.378;2023-04-07T12:47:34;94115.50;;;9.43;36.92
7335;BME280;3708;42.632;23.378;2023-04-07T12:50:01;94105.13;;;9.26;36.95
7335;BME280;3708;42.632;23.378;2023-04-07T12:52:28;94109.91;;;9.91;36.87
7335;BME280;3708;42.632;23.378;2023-04-07T12:54:55;94107.84;;;10.26;35.86
7335;BME280;3708;42.632;23.378;2023-04-07T12:57:23;94109.22;;;10.03;36.14
7335;BME280;3708;42.632;23.378;2023-04-07T12:59:49;94113.56;;;9.90;36.34
7335;BME280;3708;42.632;23.378;2023-04-07T13:02:19;94109.69;;;10.46;36.04
7335;BME280;3708;42.632;23.378;2023-04-07T13:04:52;94115.06;;;9.99;36.41
7335;BME280;3708;42.632;23.378;2023-04-07T13:07:18;94114.50;;;9.27;37.80
7335;BME280;3708;42.632;23.378;2023-04-07T13:09:46;94115.31;;;9.57;37.22
7335;BME280;3708;42.632;23.378;2023-04-07T13:12:13;94117.47;;;9.55;36.97
7335;BME280;3708;42.632;23.378;2023-04-07T13:14:40;94111.59;;;9.20;38.02
7335;BME280;3708;42.632;23.378;2023-04-07T13:17:07;94118.75;;;9.32;37.52
7335;BME280;3708;42.632;23.378;2023-04-07T13:19:36;94121.13;;;9.91;36.69
7335;BME280;3708;42.632;23.378;2023-04-07T13:22:04;94106.38;;;10.57;35.77
7335;BME280;3708;42.632;23.378;2023-04-07T13:24:31;94113.47;;;10.07;36.29
7335;BME280;3708;42.632;23.378;2023-04-07T13:26:58;94115.31;;;9.57;37.43
7335;BME280;3708;42.632;23.378;2023-04-07T13:29:24;94110.03;;;9.65;37.01
7335;BME280;3708;42.632;23.378;2023-04-07T13:31:51;94126.09;;;9.84;36.82
7335;BME280;3708;42.632;23.378;2023-04-07T13:34:18;94117.50;;;10.13;36.29
7335;BME280;3708;42.632;23.378;2023-04-07T13:36:46;94133.00;;;9.51;37.13